Surface Data

84.0 °F / 28.9 °C
NNE at 14 MPH
76%
75.9°F / 24.4 °C
29.84" (1010 mb)
10 mile(s)
partly cloudy
2022.09.30 0640 UTC

Surface Data

Raw METARs

2022/09/30 06:40
PKWA 300640Z AUTO 03012KT 10SM SCT023 SCT029 SCT038 29/24 A2984 RMK AO2 T02890244

Translated METAR

Kwajalein, Bucholz AAF, Kwajalein KMR ATOL Airport, Marshall Islands (PKWA) 08-43N 167-44E 2M
Sep 30, 2022 - 02:40 AM EDT / 2022.09.30 0640 UTC
Wind: from the NNE (030 degrees) at 14 MPH (12 KT):0
Visibility: 10 mile(s):0
Sky conditions: partly cloudy
Temperature: 84.0 F (28.9 C)
Dew Point: 75.9 F (24.4 C)
Relative Humidity: 76%
Pressure (altimeter): 29.84 in. Hg (1010 hPa)
ob: PKWA 300640Z AUTO 03012KT 10SM SCT023 SCT029 SCT038 29/24 A2984 RMK AO2 T02890244
cycle: 6